Time;durP1;ratioP1;P1;durP2;ratioP2;P2;SDS_P1;SDS_P2;PMS_P1;PMS_P2;Temp;Humidity;BMP_temperature;BMP_pressure;BME280_temperature;BME280_humidity;BME280_pressure;Samples;Min_cycle;Max_cycle;Signal;HPM_P1;HPM_P2
2021/03/08 00:00:38;;;;;;;1.35;0.80;;;;;;;-1.13;41.84;101104.06;5084158;28;20021;-71
2021/03/08 00:03:04;;;;;;;7.80;1.40;;;;;;;-1.13;41.62;101104.06;5083853;28;20462;-70
2021/03/08 00:05:31;;;;;;;1.02;0.88;;;;;;;-1.19;41.59;101101.22;5066103;28;20500;-69
2021/03/08 00:07:58;;;;;;;2.08;0.80;;;;;;;-1.17;41.61;101108.16;5083772;28;20021;-69
2021/03/08 00:10:24;;;;;;;1.17;0.93;;;;;;;-1.16;41.64;101109.91;5065989;28;20024;-69
2021/03/08 00:12:50;;;;;;;0.75;0.75;;;;;;;-1.19;41.69;101109.75;5083821;28;20048;-70
2021/03/08 00:15:17;;;;;;;3.75;1.13;;;;;;;-1.20;41.57;101112.22;5083978;28;20042;-69
2021/03/08 00:17:43;;;;;;;3.90;1.13;;;;;;;-1.22;41.90;101114.69;5083988;28;20079;-69
2021/03/08 00:20:11;;;;;;;3.70;0.98;;;;;;;-1.29;41.80;101108.38;5084010;28;20032;-69
2021/03/08 00:22:37;;;;;;;2.80;1.13;;;;;;;-1.35;41.67;101105.53;5083529;28;20028;-69
2021/03/08 00:25:15;;;;;;;2.67;1.25;;;;;;;-1.33;41.89;101119.22;5083978;28;20176;-69
2021/03/08 00:27:40;;;;;;;1.50;1.27;;;;;;;-1.36;42.27;101113.97;5083857;28;20031;-69
2021/03/08 00:30:08;;;;;;;2.03;1.25;;;;;;;-1.37;42.16;101109.66;5083774;28;20029;-69
2021/03/08 00:32:33;;;;;;;3.38;1.20;;;;;;;-1.41;42.26;101112.84;5083819;28;20024;-69
2021/03/08 00:34:59;;;;;;;2.85;1.02;;;;;;;-1.41;42.27;101112.84;5083848;28;20035;-69
2021/03/08 00:37:30;;;;;;;3.20;1.30;;;;;;;-1.46;42.38;101119.38;5083204;28;20021;-70
2021/03/08 00:39:57;;;;;;;3.80;1.20;;;;;;;-1.48;42.45;101121.84;5065496;28;20115;-68
2021/03/08 00:42:22;;;;;;;2.60;1.33;;;;;;;-1.50;42.53;101123.41;5083453;28;20022;-68
2021/03/08 00:44:48;;;;;;;5.43;2.10;;;;;;;-1.51;42.25;101125.13;5083591;28;20445;-68
2021/03/08 00:47:13;;;;;;;5.20;1.98;;;;;;;-1.53;42.40;101126.69;5083509;28;20021;-68
2021/03/08 00:49:39;;;;;;;4.07;1.27;;;;;;;-1.57;42.28;101124.78;5083545;28;20111;-68
2021/03/08 00:52:04;;;;;;;2.22;1.30;;;;;;;-1.62;42.30;101123.66;5082931;28;20031;-69
2021/03/08 00:54:29;;;;;;;2.65;1.10;;;;;;;-1.62;42.21;101128.75;5083655;28;20016;-68
2021/03/08 00:56:55;;;;;;;2.22;0.82;;;;;;;-1.60;41.94;101134.81;5083460;28;20066;-69
2021/03/08 00:59:20;;;;;;;1.80;0.98;;;;;;;-1.65;42.46;101126.06;5083305;28;20462;-68
2021/03/08 01:01:45;;;;;;;2.38;0.90;;;;;;;-1.64;42.06;101118.50;5083397;28;20088;-68
2021/03/08 01:04:11;;;;;;;2.85;1.27;;;;;;;-1.62;42.21;101126.22;5083387;28;20024;-69
2021/03/08 01:06:36;;;;;;;2.10;1.10;;;;;;;-1.62;41.96;101122.00;5083364;28;20024;-69
2021/03/08 01:09:08;;;;;;;3.35;1.23;;;;;;;-1.62;41.96;101123.66;5083012;28;20024;-69
2021/03/08 01:11:34;;;;;;;3.70;1.17;;;;;;;-1.65;41.75;101128.59;5087313;28;20028;-68
2021/03/08 01:14:00;;;;;;;3.42;1.10;;;;;;;-1.65;42.02;101128.59;5087525;28;20024;-68
2021/03/08 01:16:26;;;;;;;2.92;1.38;;;;;;;-1.70;42.08;101136.00;5087177;28;20024;-69
2021/03/08 01:18:51;;;;;;;3.05;1.02;;;;;;;-1.78;41.99;101125.41;5087364;28;20021;-68
2021/03/08 01:21:16;;;;;;;2.20;1.30;;;;;;;-1.76;42.17;101136.53;5069190;28;20101;-68
2021/03/08 01:23:42;;;;;;;3.72;1.30;;;;;;;-1.81;42.19;101125.25;5087141;28;20035;-68
2021/03/08 01:26:07;;;;;;;1.95;1.10;;;;;;;-1.79;42.23;101127.88;5087206;28;20028;-69
2021/03/08 01:28:33;;;;;;;2.60;1.30;;;;;;;-1.79;42.27;101136.34;5086993;28;20016;-69
2021/03/08 01:30:58;;;;;;;1.98;0.80;;;;;;;-1.83;42.46;101139.53;5069079;28;20035;-69
2021/03/08 01:33:23;;;;;;;2.83;1.50;;;;;;;-1.84;42.50;101136.91;5086957;28;20016;-69
2021/03/08 01:35:49;;;;;;;5.35;1.23;;;;;;;-1.84;42.70;101131.81;5086985;28;20080;-68
2021/03/08 01:38:14;;;;;;;1.63;1.10;;;;;;;-1.88;42.53;101130.78;5086677;28;20028;-69
2021/03/08 01:40:40;;;;;;;1.42;1.00;;;;;;;-1.89;42.56;101129.91;5086772;28;20053;-68
2021/03/08 01:43:07;;;;;;;3.08;1.15;;;;;;;-1.88;42.65;101131.66;5086731;28;20027;-69
2021/03/08 01:45:33;;;;;;;1.80;1.00;;;;;;;-1.90;42.60;101123.06;5068684;28;20139;-69
2021/03/08 01:47:59;;;;;;;3.25;0.90;;;;;;;-1.88;42.70;101134.19;5086694;28;20012;-69
2021/03/08 01:50:39;;;;;;;1.73;0.80;;;;;;;-1.87;42.24;101127.44;5086916;28;20337;-68
2021/03/08 01:53:07;;;;;;;2.28;1.13;;;;;;;-1.85;42.21;101128.38;5086510;28;20035;-69
2021/03/08 01:55:33;;;;;;;1.67;0.75;;;;;;;-1.82;41.95;101131.09;5086735;28;20326;-69
2021/03/08 01:57:59;;;;;;;3.97;1.48;;;;;;;-1.82;41.90;101126.00;5086502;28;20149;-68
2021/03/08 02:00:27;;;;;;;1.85;1.08;;;;;;;-1.82;41.92;101118.38;5086650;28;20024;-68
2021/03/08 02:02:53;;;;;;;3.67;1.48;;;;;;;-1.87;41.68;101122.38;5086373;28;20028;-68
2021/03/08 02:05:21;;;;;;;2.95;1.10;;;;;;;-1.84;41.68;101130.16;5086851;28;20025;-69
2021/03/08 02:07:47;;;;;;;2.25;1.02;;;;;;;-1.82;41.60;101127.69;5086122;28;20017;-69
2021/03/08 02:10:14;;;;;;;2.15;1.20;;;;;;;-1.82;41.71;101130.25;5068530;28;20021;-69
2021/03/08 02:12:46;;;;;;;2.05;1.10;;;;;;;-1.81;41.67;101130.31;5086297;28;20029;-69
2021/03/08 02:15:20;;;;;;;4.20;1.20;;;;;;;-1.87;41.54;101132.53;5086455;28;20074;-69
2021/03/08 02:17:55;;;;;;;2.83;1.00;;;;;;;-1.91;41.62;101130.59;5086054;28;20082;-69
2021/03/08 02:21:06;;;;;;;6.50;1.00;;;;;;;-1.95;41.26;101137.19;5086227;28;20020;-70
2021/03/08 02:24:08;;;;;;;1.70;1.00;;;;;;;-2.01;41.29;101139.41;5080911;28;20044;-70
2021/03/08 02:26:56;;;;;;;2.53;0.93;;;;;;;-2.03;41.23;101139.31;5086226;28;20027;-69
2021/03/08 02:29:49;;;;;;;1.83;1.00;;;;;;;-2.07;41.31;101136.53;5086136;28;20103;-71
2021/03/08 02:32:19;;;;;;;2.58;0.90;;;;;;;-2.06;41.08;101136.59;5067737;28;20737;-69
2021/03/08 02:34:55;;;;;;;2.65;0.90;;;;;;;-2.06;40.93;101128.97;5067966;28;20024;-70
2021/03/08 02:37:24;;;;;;;3.22;0.95;;;;;;;-2.05;41.17;101124.78;5085987;28;20024;-69
2021/03/08 02:39:53;;;;;;;3.05;0.93;;;;;;;-1.97;41.02;101127.72;5085983;28;20037;-70
2021/03/08 02:42:25;;;;;;;2.75;1.50;;;;;;;-1.94;41.06;101135.53;5086209;28;20021;-69
2021/03/08 02:44:54;;;;;;;;;;;;;;;-1.97;41.02;101132.81;5086350;28;20029;-70
2021/03/08 02:47:21;;;;;;;2.50;1.00;;;;;;;-2.01;41.31;101136.84;5085635;28;19908;-70
2021/03/08 02:49:49;;;;;;;1.83;1.02;;;;;;;-2.04;41.33;101147.75;5085592;28;20431;-69
2021/03/08 02:52:19;;;;;;;2.03;0.90;;;;;;;-2.11;41.36;101140.59;5085271;28;20029;-69
2021/03/08 02:54:50;;;;;;;3.95;0.95;;;;;;;-2.10;41.33;101138.91;5085474;28;20024;-69
2021/03/08 02:57:20;;;;;;;3.50;1.15;;;;;;;-2.13;41.69;101139.63;5085401;28;20052;-69
2021/03/08 02:59:47;;;;;;;6.78;1.50;;;;;;;-2.15;41.57;101152.25;5085662;28;20020;-70
2021/03/08 03:02:13;;;;;;;1.42;1.10;;;;;;;-2.23;41.76;101156.03;5085348;28;20086;-69
2021/03/08 03:04:41;;;;;;;1.50;0.90;;;;;;;-2.24;41.74;101155.16;5085520;28;20032;-69
2021/03/08 03:07:09;;;;;;;1.17;0.73;;;;;;;-2.24;41.71;101157.69;5084948;28;20009;-69
2021/03/08 03:09:36;;;;;;;3.38;1.65;;;;;;;-2.26;41.90;101154.19;5085466;28;20040;-69
2021/03/08 03:12:03;;;;;;;2.55;1.20;;;;;;;-2.30;41.96;101148.84;5085407;28;20029;-72
2021/03/08 03:14:29;;;;;;;3.33;0.90;;;;;;;-2.27;42.09;101156.66;5085312;28;20048;-69
2021/03/08 03:17:01;;;;;;;2.83;1.15;;;;;;;-2.34;42.17;101154.53;5085227;28;20036;-70
2021/03/08 03:19:28;;;;;;;2.08;1.20;;;;;;;-2.33;42.25;101161.41;5085573;28;20059;-70
2021/03/08 03:21:57;;;;;;;1.58;0.90;;;;;;;-2.36;42.26;101162.09;5085355;28;20040;-69
2021/03/08 03:24:24;;;;;;;1.75;0.90;;;;;;;-2.39;42.58;101157.72;5085842;28;20070;-70
2021/03/08 03:26:50;;;;;;;1.50;1.10;;;;;;;-2.46;42.84;101153.06;5085009;28;20068;-70
2021/03/08 03:29:16;;;;;;;5.20;1.33;;;;;;;-2.40;42.89;101165.25;5085194;28;20531;-70
2021/03/08 03:31:42;;;;;;;2.25;1.20;;;;;;;-2.51;43.16;101155.34;5084888;28;20525;-70
2021/03/08 03:34:09;;;;;;;3.35;1.27;;;;;;;-2.46;43.48;101168.31;5084908;28;20107;-70
2021/03/08 03:36:36;;;;;;;2.38;1.23;;;;;;;-2.52;43.83;101175.59;5084750;28;20028;-69
2021/03/08 03:39:06;;;;;;;3.97;1.25;;;;;;;-2.58;43.70;101163.41;5084591;28;20047;-70
2021/03/08 03:41:33;;;;;;;3.05;1.17;;;;;;;-2.56;43.88;101169.47;5084957;28;20035;-71
2021/03/08 03:43:58;;;;;;;4.22;1.02;;;;;;;-2.63;43.90;101160.59;5084626;28;20046;-70
2021/03/08 03:46:24;;;;;;;4.78;1.30;;;;;;;-2.60;44.16;101172.59;5084803;28;20044;-70
2021/03/08 03:48:50;;;;;;;8.35;1.20;;;;;;;-2.68;44.34;101169.63;5084498;28;20024;-69
2021/03/08 03:51:15;;;;;;;8.15;1.65;;;;;;;-2.71;44.26;101164.38;5084716;28;20028;-69
2021/03/08 03:53:41;;;;;;;4.82;1.00;;;;;;;-2.69;44.40;101170.44;5084292;28;20465;-68
2021/03/08 03:56:09;;;;;;;3.17;1.23;;;;;;;-2.75;44.74;101173.47;5084456;28;20029;-68
2021/03/08 03:58:50;;;;;;;2.60;1.30;;;;;;;-2.77;44.81;101177.59;5084348;28;20029;-69
2021/03/08 04:01:20;;;;;;;1.85;1.10;;;;;;;-2.82;44.88;101179.00;5084452;28;20050;-69
2021/03/08 04:03:54;;;;;;;2.72;2.45;;;;;;;-2.85;44.88;101178.81;5084102;28;20044;-69
2021/03/08 04:06:22;;;;;;;4.38;1.00;;;;;;;-2.88;44.98;101181.19;5084335;28;20020;-70
2021/03/08 04:08:52;;;;;;;2.10;1.02;;;;;;;-3.06;44.98;101166.59;5083834;28;20028;-69
2021/03/08 04:11:19;;;;;;;3.05;1.35;;;;;;;-2.94;45.01;101188.44;5066184;28;20084;-69
2021/03/08 04:13:46;;;;;;;1.70;1.00;;;;;;;-3.04;45.22;101184.47;5083966;28;20426;-69
2021/03/08 04:16:14;;;;;;;2.60;1.13;;;;;;;-3.01;45.27;101189.72;5083881;28;20033;-69
2021/03/08 04:18:42;;;;;;;4.13;0.98;;;;;;;-3.05;45.30;101192.88;5084161;28;20082;-70
2021/03/08 04:21:09;;;;;;;3.65;1.15;;;;;;;-3.07;45.28;101190.25;5084093;28;20042;-70
2021/03/08 04:23:37;;;;;;;1.65;0.90;;;;;;;-3.07;45.34;101200.41;5083578;28;20055;-71
2021/03/08 04:26:06;;;;;;;3.40;1.10;;;;;;;-3.08;45.48;101198.63;5084038;28;20033;-70
2021/03/08 04:28:33;;;;;;;3.33;1.08;;;;;;;-3.12;45.49;101197.59;5083970;28;20021;-71
2021/03/08 04:30:58;;;;;;;2.53;0.88;;;;;;;-3.20;45.84;101191.16;5083770;28;20085;-71
2021/03/08 04:33:24;;;;;;;1.60;0.80;;;;;;;-3.16;45.82;101197.28;5083660;28;20070;-72
2021/03/08 04:35:51;;;;;;;3.55;1.20;;;;;;;-3.18;45.86;101204.81;5083794;28;20415;-71
2021/03/08 04:38:16;;;;;;;1.80;0.93;;;;;;;-3.29;45.73;101195.69;5083283;28;20022;-71
2021/03/08 04:40:42;;;;;;;1.63;1.05;;;;;;;-3.24;45.85;101210.41;5083488;28;20094;-72
2021/03/08 04:43:08;;;;;;;2.45;1.20;;;;;;;-3.24;45.78;101223.13;5083702;28;20052;-71
2021/03/08 04:45:34;;;;;;;1.95;1.10;;;;;;;-3.25;45.89;101223.03;5065180;28;20043;-71
2021/03/08 04:48:02;;;;;;;4.50;2.85;;;;;;;-3.30;45.96;101217.66;5065447;28;20016;-71
2021/03/08 04:50:28;;;;;;;6.07;1.10;;;;;;;-3.28;46.11;101223.72;5083561;28;20025;-70
2021/03/08 04:52:54;;;;;;;3.20;1.45;;;;;;;-3.29;46.15;101218.56;5083262;28;20017;-71
2021/03/08 04:55:23;;;;;;;1.30;1.20;;;;;;;-3.32;46.05;101224.31;5065718;28;20059;-71
2021/03/08 04:57:48;;;;;;;6.38;1.35;;;;;;;-3.30;46.14;101220.22;5083465;28;20108;-70
2021/03/08 05:00:14;;;;;;;1.48;1.02;;;;;;;-3.29;45.95;101226.19;5083608;28;20039;-70
2021/03/08 05:02:42;;;;;;;2.40;0.90;;;;;;;-3.30;46.10;101221.84;5083536;28;20117;-71
2021/03/08 05:05:10;;;;;;;4.78;1.55;;;;;;;-3.30;46.00;101224.41;5083548;28;20017;-71
2021/03/08 05:07:39;;;;;;;1.95;1.10;;;;;;;-3.28;45.96;101225.38;5083134;28;20017;-70
2021/03/08 05:10:08;;;;;;;4.72;1.10;;;;;;;-3.25;45.91;101229.00;5065208;28;20105;-71
2021/03/08 05:12:36;;;;;;;2.47;1.30;;;;;;;-3.22;45.83;101232.47;5082795;28;20032;-71
2021/03/08 05:15:05;;;;;;;5.45;1.55;;;;;;;-3.23;45.89;101231.63;5083359;28;20461;-70
2021/03/08 05:17:32;;;;;;;3.65;1.80;;;;;;;-3.22;45.98;101235.91;5082714;28;20473;-71
2021/03/08 05:19:59;;;;;;;2.78;1.05;;;;;;;-3.24;45.75;101235.81;5083526;28;20020;-70
2021/03/08 05:22:25;;;;;;;1.55;1.13;;;;;;;-3.20;45.66;101238.53;5083067;28;20383;-71
2021/03/08 05:24:51;;;;;;;1.92;1.00;;;;;;;-3.21;45.73;101240.19;5083467;28;20489;-70
2021/03/08 05:27:18;;;;;;;4.65;1.00;;;;;;;-3.21;45.70;101236.81;5083188;28;20539;-70
2021/03/08 05:29:45;;;;;;;3.00;1.20;;;;;;;-3.22;45.74;101251.16;5083247;28;20384;-71
2021/03/08 05:32:15;;;;;;;4.07;1.30;;;;;;;-3.17;45.96;101252.31;5083115;28;20167;-70
2021/03/08 05:34:45;;;;;;;2.13;1.00;;;;;;;-3.16;45.82;101254.06;5083306;28;20028;-69
2021/03/08 05:37:13;;;;;;;1.95;0.90;;;;;;;-3.13;45.89;101266.94;5082901;28;20075;-71
2021/03/08 05:39:41;;;;;;;4.30;0.90;;;;;;;-3.15;46.06;101260.03;5082900;28;20040;-70
2021/03/08 05:42:10;;;;;;;2.30;1.00;;;;;;;-3.11;45.97;101259.44;5082752;28;20086;-69
2021/03/08 05:44:40;;;;;;;1.52;0.93;;;;;;;-3.09;46.08;101262.94;5082908;28;20080;-70
2021/03/08 05:47:12;;;;;;;3.20;1.02;;;;;;;-3.07;46.20;101268.13;5082743;28;20459;-70
2021/03/08 05:49:40;;;;;;;2.92;1.13;;;;;;;-3.03;46.14;101263.31;5083104;28;20021;-69
2021/03/08 05:52:31;;;;;;;4.47;0.98;;;;;;;-3.01;46.11;101271.94;5064854;28;20029;-69
2021/03/08 05:55:19;;;;;;;4.65;1.40;;;;;;;-2.96;46.35;101273.84;5083143;28;20043;-69
2021/03/08 05:58:15;;;;;;;3.20;0.80;;;;;;;-2.86;46.05;101273.66;5084676;28;20071;-70
2021/03/08 06:01:09;;;;;;;3.75;1.10;;;;;;;-2.74;45.95;101279.47;5086816;28;20078;-69
2021/03/08 06:04:10;;;;;;;1.77;1.00;;;;;;;-2.62;46.01;101275.91;5068478;28;20074;-69
2021/03/08 06:06:57;;;;;;;4.20;1.05;;;;;;;-2.48;45.83;101281.81;4984313;28;20091;-69
2021/03/08 06:09:27;;;;;;;7.80;1.33;;;;;;;-2.31;45.69;101284.44;4968395;28;20027;-69
2021/03/08 06:12:03;;;;;;;6.78;1.02;;;;;;;-2.21;45.57;101288.41;4984640;28;20078;-67
2021/03/08 06:14:40;;;;;;;2.45;1.17;;;;;;;-2.19;45.44;101297.00;4984967;28;20054;-68
2021/03/08 06:17:06;;;;;;;7.32;1.45;;;;;;;-2.23;45.41;101298.50;4984740;28;20045;-69
2021/03/08 06:19:33;;;;;;;7.93;1.08;;;;;;;-2.33;45.52;101289.44;4984754;28;20109;-68
2021/03/08 06:22:01;;;;;;;6.35;1.30;;;;;;;-2.34;45.56;101295.31;4984533;28;20026;-68
2021/03/08 06:24:30;;;;;;;4.90;1.20;;;;;;;-2.31;45.54;101294.63;4984168;28;20070;-73
2021/03/08 06:26:57;;;;;;;4.60;1.30;;;;;;;-2.30;45.66;101302.34;4984240;28;20054;-70
2021/03/08 06:29:22;;;;;;;6.82;1.10;;;;;;;-2.25;45.56;101306.03;4984161;28;20077;-69
2021/03/08 06:31:50;;;;;;;4.88;1.30;;;;;;;-2.21;45.42;101303.66;4984243;28;20026;-69
2021/03/08 06:34:15;;;;;;;2.50;1.10;;;;;;;-2.14;45.73;101300.72;4984619;28;20045;-71
2021/03/08 06:36:43;;;;;;;2.83;1.33;;;;;;;-1.88;45.85;101301.31;4984281;28;20126;-70
2021/03/08 06:39:10;;;;;;;1.98;1.02;;;;;;;-1.44;46.82;101303.75;4967784;28;20023;-69
2021/03/08 06:41:36;;;;;;;5.32;1.20;;;;;;;-0.92;46.17;101308.25;4984320;28;20054;-69
2021/03/08 06:44:03;;;;;;;7.15;1.50;;;;;;;-0.35;45.61;101304.31;5078409;28;20047;-69
2021/03/08 06:46:28;;;;;;;2.97;1.13;;;;;;;0.23;45.15;101307.16;5085987;28;20032;-69
2021/03/08 06:48:54;;;;;;;3.75;1.20;;;;;;;0.64;44.66;101294.59;5086087;28;20085;-68
2021/03/08 06:51:19;;;;;;;3.88;1.38;;;;;;;1.15;44.07;101311.38;5085563;28;20028;-68
2021/03/08 06:53:46;;;;;;;5.40;1.67;;;;;;;1.68;43.09;101306.00;5084701;28;20111;-69
2021/03/08 06:56:26;;;;;;;6.75;1.27;;;;;;;2.21;42.68;101294.47;5085681;28;20032;-69
2021/03/08 06:59:14;;;;;;;6.20;1.38;;;;;;;2.64;42.35;101309.81;5085776;28;20040;-68
2021/03/08 07:01:44;;;;;;;5.82;1.30;;;;;;;3.04;41.22;101316.47;5085809;28;20555;-71
2021/03/08 07:04:16;;;;;;;11.70;2.03;;;;;;;3.51;41.08;101310.44;5085012;28;20024;-69
2021/03/08 07:06:42;;;;;;;6.28;2.35;;;;;;;3.91;40.62;101313.53;5085544;28;20021;-69
2021/03/08 07:09:11;;;;;;;7.30;1.77;;;;;;;4.22;39.33;101311.06;5084949;28;20084;-69
2021/03/08 07:11:37;;;;;;;15.85;2.42;;;;;;;4.38;39.00;101307.31;5085334;28;20021;-70
2021/03/08 07:14:16;;;;;;;16.80;1.75;;;;;;;4.49;39.14;101314.50;5085285;28;20031;-69
2021/03/08 07:16:42;;;;;;;7.75;2.33;;;;;;;4.93;37.87;101308.94;5085219;28;20020;-69
2021/03/08 07:19:07;;;;;;;12.18;2.17;;;;;;;5.28;36.36;101315.94;5067336;28;20032;-67
2021/03/08 07:21:38;;;;;;;9.55;2.00;;;;;;;5.74;36.88;101320.59;5085248;28;20520;-68
2021/03/08 07:24:12;;;;;;;19.10;2.27;;;;;;;6.17;36.41;101314.00;5085132;28;20039;-67
2021/03/08 07:26:51;;;;;;;7.65;2.20;;;;;;;6.55;35.57;101325.22;5085394;28;20012;-68
2021/03/08 07:29:24;;;;;;;14.23;2.65;;;;;;;6.74;35.13;101326.47;5085290;28;20021;-67
2021/03/08 07:31:54;;;;;;;9.18;2.00;;;;;;;6.95;34.66;101320.03;5066919;28;20058;-68
2021/03/08 07:34:20;;;;;;;8.55;1.90;;;;;;;7.13;34.01;101324.72;5084974;28;20485;-69
2021/03/08 07:36:58;;;;;;;7.00;1.48;;;;;;;7.23;33.35;101327.50;5084856;28;20519;-69
2021/03/08 07:39:24;;;;;;;5.25;1.73;;;;;;;7.01;32.35;101333.06;5084386;28;20068;-67
2021/03/08 07:41:57;;;;;;;11.02;1.42;;;;;;;6.75;32.63;101337.66;5066686;28;20025;-65
2021/03/08 07:44:25;;;;;;;3.92;1.23;;;;;;;6.22;32.13;101344.16;5084956;28;20249;-66
2021/03/08 07:46:51;;;;;;;12.20;2.15;;;;;;;5.78;33.24;101340.47;5084255;28;20012;-66
2021/03/08 07:49:30;;;;;;;4.50;1.48;;;;;;;5.79;33.73;101335.38;5084674;28;20036;-66
2021/03/08 07:52:07;;;;;;;10.23;2.15;;;;;;;5.74;32.37;101342.09;5084718;28;20051;-66
2021/03/08 07:54:55;;;;;;;61.65;7.85;;;;;;;5.44;33.14;101341.31;5084459;28;20031;-68
2021/03/08 07:57:21;;;;;;;38.55;6.13;;;;;;;5.15;33.51;101346.50;5084377;28;20112;-67
2021/03/08 07:59:47;;;;;;;4.13;1.20;;;;;;;5.17;34.12;101336.25;5084587;28;20465;-66
2021/03/08 08:02:13;;;;;;;8.18;1.58;;;;;;;5.26;33.35;101341.66;5084391;28;20032;-68
2021/03/08 08:04:38;;;;;;;19.30;2.60;;;;;;;5.02;33.55;101344.38;5084583;28;20021;-66
2021/03/08 08:07:06;;;;;;;10.90;1.70;;;;;;;4.88;33.89;101334.56;5084599;28;20047;-67
2021/03/08 08:09:40;;;;;;;4.47;1.40;;;;;;;4.83;34.16;101341.25;5066199;28;20024;-67
2021/03/08 08:12:22;;;;;;;7.95;1.30;;;;;;;4.92;34.09;101336.38;5084578;28;20180;-67
2021/03/08 08:14:47;;;;;;;;;;;;;;;5.00;34.60;101343.47;5084953;28;20021;-67
2021/03/08 08:17:19;;;;;;;4.82;1.20;;;;;;;5.06;34.02;101338.50;5083842;28;20285;-66
2021/03/08 08:19:46;;;;;;;5.68;1.38;;;;;;;4.90;33.96;101337.16;5083485;28;20115;-67
2021/03/08 08:22:23;;;;;;;2.83;2.03;;;;;;;4.74;34.05;101335.81;5083827;28;20092;-67
2021/03/08 08:24:52;;;;;;;2.35;1.10;;;;;;;4.60;34.18;101336.25;5084054;28;20102;-67
2021/03/08 08:27:18;;;;;;;2.00;0.90;;;;;;;4.59;34.14;101339.66;5084056;28;20039;-67
2021/03/08 08:29:45;;;;;;;3.97;1.00;;;;;;;4.70;34.46;101335.72;5084191;28;20024;-68
2021/03/08 08:32:11;;;;;;;3.53;1.13;;;;;;;5.02;34.56;101334.97;5083735;28;20373;-67
2021/03/08 08:34:44;;;;;;;4.03;1.38;;;;;;;5.19;33.65;101338.00;5083987;28;20050;-66
2021/03/08 08:37:13;;;;;;;68.88;7.68;;;;;;;4.87;34.08;101332.81;5083893;28;20055;-67
2021/03/08 08:39:40;;;;;;;15.48;3.95;;;;;;;4.93;34.31;101332.13;5083463;28;20059;-67
2021/03/08 08:42:16;;;;;;;8.18;2.22;;;;;;;4.92;34.42;101338.94;5083620;28;20033;-67
2021/03/08 08:44:43;;;;;;;8.77;1.83;;;;;;;4.78;34.41;101332.50;5084035;28;20027;-68
2021/03/08 08:47:31;;;;;;;4.22;1.02;;;;;;;4.73;34.76;101334.94;5083767;28;20076;-67
2021/03/08 08:49:58;;;;;;;3.38;1.25;;;;;;;4.80;34.98;101342.03;5083777;28;20032;-67
2021/03/08 08:52:48;;;;;;;7.63;1.15;;;;;;;4.75;35.11;101340.13;5083314;28;20431;-66
2021/03/08 08:55:15;;;;;;;4.05;1.10;;;;;;;4.86;34.91;101336.19;5083671;28;20072;-68
2021/03/08 08:58:18;;;;;;;3.72;1.20;;;;;;;4.85;35.18;101339.59;5083594;28;20065;-68
2021/03/08 09:01:03;;;;;;;3.92;1.00;;;;;;;5.07;35.21;101337.66;5083666;28;20032;-67
2021/03/08 09:03:55;;;;;;;4.93;0.85;;;;;;;5.46;35.25;101341.34;5065318;28;20400;-69
2021/03/08 09:06:42;;;;;;;2.42;1.20;;;;;;;5.88;35.11;101345.03;5083532;28;20021;-67
2021/03/08 09:09:09;;;;;;;6.70;1.02;;;;;;;5.98;34.57;101342.69;5083327;28;20025;-67
2021/03/08 09:11:57;;;;;;;1.60;0.90;;;;;;;5.86;34.41;101336.41;5083476;28;20050;-68
2021/03/08 09:14:37;;;;;;;1.98;1.10;;;;;;;5.80;34.21;101349.09;5083736;28;20016;-67
2021/03/08 09:17:05;;;;;;;5.88;0.90;;;;;;;5.66;34.80;101351.31;5083457;28;20046;-67
2021/03/08 09:19:31;;;;;;;2.50;1.05;;;;;;;5.58;34.87;101344.25;5065342;28;20025;-67
2021/03/08 09:22:22;;;;;;;2.03;1.05;;;;;;;5.58;34.94;101349.41;5083416;28;20039;-67
2021/03/08 09:24:52;;;;;;;160.45;15.13;;;;;;;5.54;35.20;101352.72;5083223;28;20107;-68
2021/03/08 09:27:23;;;;;;;6.75;0.88;;;;;;;5.47;34.65;101348.25;5083734;28;20103;-67
2021/03/08 09:29:49;;;;;;;5.53;1.23;;;;;;;5.26;35.02;101356.22;5083648;28;20032;-67
2021/03/08 09:32:18;;;;;;;3.08;1.00;;;;;;;5.15;35.35;101356.78;5086941;28;20088;-68
2021/03/08 09:34:43;;;;;;;3.47;0.95;;;;;;;5.02;35.35;101352.97;5087530;28;20039;-68
2021/03/08 09:37:10;;;;;;;8.13;1.50;;;;;;;4.92;35.48;101354.38;5087212;28;20020;-69
2021/03/08 09:39:50;;;;;;;1.55;0.82;;;;;;;5.12;35.78;101358.38;5086605;28;20040;-69
2021/03/08 09:42:15;;;;;;;109.53;29.77;;;;;;;5.09;35.48;101343.75;5087004;28;20025;-67
2021/03/08 09:44:42;;;;;;;6.15;1.70;;;;;;;5.23;35.73;101356.13;5087107;28;20027;-67
2021/03/08 09:47:07;;;;;;;33.13;7.45;;;;;;;5.43;35.76;101355.00;5086875;28;20017;-68
2021/03/08 09:49:55;;;;;;;26.48;4.90;;;;;;;5.67;35.18;101368.53;5086992;28;20032;-67
2021/03/08 09:52:52;;;;;;;16.27;3.65;;;;;;;5.66;35.11;101367.66;5086713;28;20044;-68
2021/03/08 09:55:22;;;;;;;9.93;2.40;;;;;;;5.52;35.16;101361.25;5066914;28;20097;-67
2021/03/08 09:57:47;;;;;;;5.18;1.20;;;;;;;5.70;35.01;101354.00;5068573;28;20545;-67
2021/03/08 10:00:19;;;;;;;6.10;1.15;;;;;;;6.08;34.53;101360.19;5086847;28;20020;-70
2021/03/08 10:02:44;;;;;;;13.43;2.87;;;;;;;6.14;34.28;101370.66;5086699;28;20032;-69
2021/03/08 10:05:12;;;;;;;6.25;1.67;;;;;;;6.14;33.55;101365.50;5086669;28;20024;-68
2021/03/08 10:07:56;;;;;;;4.97;1.10;;;;;;;6.25;33.89;101364.88;5086449;28;20179;-68
2021/03/08 10:10:24;;;;;;;9.60;2.17;;;;;;;6.68;33.22;101359.88;5086641;28;20028;-67
2021/03/08 10:13:02;;;;;;;7.07;1.50;;;;;;;7.05;32.68;101362.41;5086450;28;20044;-69
2021/03/08 10:15:38;;;;;;;48.92;4.47;;;;;;;7.49;31.98;101365.91;5068490;28;20044;-68
2021/03/08 10:18:03;;;;;;;86.43;6.13;;;;;;;8.12;31.26;101358.44;5086254;28;20029;-66
2021/03/08 10:20:31;;;;;;;37.05;3.88;;;;;;;8.75;30.49;101364.63;5086329;28;20384;-67
2021/03/08 10:22:56;;;;;;;12.18;2.13;;;;;;;9.49;29.22;101363.84;5085854;28;20020;-66
2021/03/08 10:25:24;;;;;;;7.65;1.65;;;;;;;9.76;28.30;101365.00;5068276;28;20070;-67
2021/03/08 10:27:58;;;;;;;17.77;3.17;;;;;;;9.86;28.49;101368.53;5086345;28;20044;-66
2021/03/08 10:30:26;;;;;;;9.25;1.55;;;;;;;10.03;28.18;101363.53;5086219;28;20056;-67
2021/03/08 10:32:55;;;;;;;7.90;1.70;;;;;;;10.30;28.09;101367.25;5086213;28;20024;-66
2021/03/08 10:35:22;;;;;;;11.75;1.50;;;;;;;10.50;27.09;101353.56;5086261;28;20534;-67
2021/03/08 10:37:48;;;;;;;7.63;1.83;;;;;;;10.49;26.67;101347.50;5085459;28;20036;-67
2021/03/08 10:40:16;;;;;;;4.78;1.40;;;;;;;10.56;26.52;101356.19;5085832;28;20079;-66
2021/03/08 10:42:42;;;;;;;59.67;5.78;;;;;;;10.58;26.09;101357.09;5085008;28;20036;-66
2021/03/08 10:45:10;;;;;;;7.70;1.70;;;;;;;10.53;26.00;101358.78;5067814;28;20020;-66
2021/03/08 10:47:36;;;;;;;15.75;2.03;;;;;;;10.63;26.35;101355.38;5085721;28;20024;-68
2021/03/08 10:50:03;;;;;;;19.40;3.03;;;;;;;11.10;24.89;101365.19;5085795;28;20021;-67
2021/03/08 10:52:28;;;;;;;6.78;1.50;;;;;;;11.18;24.66;101362.63;5085495;28;20048;-69
2021/03/08 10:54:54;;;;;;;9.90;1.50;;;;;;;11.07;24.49;101365.16;5085808;28;20013;-67
2021/03/08 10:57:21;;;;;;;4.32;1.13;;;;;;;10.93;24.76;101365.94;5067658;28;20094;-67
2021/03/08 10:59:49;;;;;;;5.03;1.33;;;;;;;10.73;25.13;101361.53;5085773;28;20385;-66
2021/03/08 11:02:16;;;;;;;5.28;1.45;;;;;;;10.97;25.28;101359.06;5085792;28;20032;-67
2021/03/08 11:04:49;;;;;;;6.47;1.40;;;;;;;11.30;25.17;101356.59;5085634;28;20032;-67
2021/03/08 11:07:15;;;;;;;5.43;1.60;;;;;;;11.62;24.43;101350.63;5085445;28;20021;-67
2021/03/08 11:09:45;;;;;;;4.50;0.82;;;;;;;11.67;23.35;101353.22;5085309;28;20106;-67
2021/03/08 11:12:20;;;;;;;2.58;0.90;;;;;;;11.68;22.91;101341.97;5085568;28;20052;-68
2021/03/08 11:14:50;;;;;;;3.20;1.30;;;;;;;11.56;23.17;101355.81;5085719;28;20031;-67
2021/03/08 11:17:15;;;;;;;8.40;1.00;;;;;;;11.78;23.09;101356.72;5085334;28;20027;-68
2021/03/08 11:19:41;;;;;;;4.93;1.25;;;;;;;12.10;23.08;101352.47;5085345;28;20021;-67
2021/03/08 11:22:11;;;;;;;3.33;0.90;;;;;;;12.81;23.05;101348.06;5085469;28;20029;-68
2021/03/08 11:24:50;;;;;;;3.63;1.42;;;;;;;13.33;22.15;101346.13;5085064;28;20493;-67
2021/03/08 11:27:27;;;;;;;8.70;1.70;;;;;;;13.96;21.72;101351.88;5085318;28;20453;-69
2021/03/08 11:30:11;;;;;;;7.95;1.27;;;;;;;14.27;20.70;101345.50;5085160;28;20150;-70
2021/03/08 11:32:40;;;;;;;9.30;1.33;;;;;;;14.42;21.15;101344.53;5085195;28;20024;-69
2021/03/08 11:35:15;;;;;;;6.47;1.50;;;;;;;14.74;20.04;101332.88;5085154;28;20028;-69
2021/03/08 11:37:46;;;;;;;6.18;1.17;;;;;;;14.67;20.48;101333.81;5066644;28;20056;-68
2021/03/08 11:40:15;;;;;;;4.90;0.98;;;;;;;13.73;20.54;101339.84;5084899;28;20103;-69